Bookmark and Share
Track history (hours):
 

Sirius

Last reported at 2014-Apr-21 08:24 UTC. Time now 2014-Apr-21 10:09 UTC.
Position N 35°49' E 014°33'.

Length 178.1 m; beam 28.2 m; draft 11.5 m.

Type: Cargo ship. MMSI: 538090245.

NotesDate/timePositionNaut miles runAvg speedWind from/ knotsBaromVisibWave heightAir tempDewpointWater temp
2014-Apr-21 08:24N 35°49' E 014°33'0 0.0
2014-Apr-21 07:21N 35°49' E 014°33'0 0.0
2014-Apr-20 21:30N 35°49' E 014°33'0 0.0
2014-Apr-20 20:24N 35°49' E 014°33'7 0.4
2014-Apr-20 01:27N 35°50' E 014°41'0 0.0
2014-Apr-20 00:33N 35°50' E 014°41'0 0.0
2014-Apr-19 23:30N 35°50' E 014°41'0 0.0
2014-Apr-19 22:33N 35°50' E 014°41'0 0.0
2014-Apr-19 21:33N 35°50' E 014°41'0 0.1
2014-Apr-19 20:33N 35°50' E 014°41'0 0.0
2014-Apr-19 19:30N 35°50' E 014°41'  
2014-Apr-15 05:34N 31°22' E 032°16'0 0.0
2014-Apr-14 20:34N 31°22' E 032°16'0 0.0
2014-Apr-14 19:34N 31°22' E 032°16'0 0.0
2014-Apr-14 17:34N 31°22' E 032°16'0 0.0
2014-Apr-14 08:31N 31°22' E 032°16'0 0.0
2014-Apr-13 21:32N 31°23' E 032°15'198 6.5
2014-Apr-12 15:09N 34°21' E 033°58'1220.6
2014-Apr-12 14:34N 34°25' E 033°44'2019.6
2014-Apr-12 13:33N 34°33' E 033°22'1717.5
2014-Apr-12 12:34N 34°39' E 033°02'1 1.0
2014-Apr-12 11:32N 34°39' E 033°01'0 0.0
2014-Apr-12 10:29N 34°39' E 033°01'0 0.0
2014-Apr-12 09:32N 34°39' E 033°01'0 0.0
2014-Apr-12 08:32N 34°39' E 033°01'0 0.0
2014-Apr-12 07:32N 34°39' E 033°01'0 0.0
2014-Apr-12 06:32N 34°39' E 033°01'0 0.0
2014-Apr-12 05:32N 34°39' E 033°01'0 0.0
2014-Apr-12 04:32N 34°39' E 033°01'2 1.6
2014-Apr-12 03:34N 34°39' E 033°03'2 2.1
2014-Apr-12 02:31N 34°40' E 033°05'0 0.0
2014-Apr-12 01:31N 34°40' E 033°05'0 0.0
2014-Apr-12 00:28N 34°40' E 033°05'0 0.0
2014-Apr-11 23:31N 34°40' E 033°05'0 0.0
2014-Apr-11 22:31N 34°40' E 033°05'0 0.0
2014-Apr-11 21:31N 34°40' E 033°05'0 0.0
2014-Apr-11 20:31N 34°40' E 033°05'0 0.0
2014-Apr-11 19:31N 34°40' E 033°05'0 0.1
2014-Apr-11 18:31N 34°40' E 033°05'3 2.9
2014-Apr-11 17:33N 34°39' E 033°08'  

Dump ship's entire track history

sailing weather and tide predictions

Sirius — V7KI6 — position and weather